Time;durP1;ratioP1;P1;durP2;ratioP2;P2;SDS_P1;SDS_P2;PMS_P1;PMS_P2;Temp;Humidity;BMP_temperature;BMP_pressure;BME280_temperature;BME280_humidity;BME280_pressure;Samples;Min_cycle;Max_cycle;Signal;HPM_P1;HPM_P2
2022/01/07 00:01:54;;;;;;;16.42;6.68;;;2.60;99.90;;;;;;5031911;28;20496;-86
2022/01/07 00:04:20;;;;;;;21.48;7.43;;;2.60;99.90;;;;;;4997879;28;20036;-87
2022/01/07 00:06:45;;;;;;;17.08;6.20;;;2.70;99.90;;;;;;4998993;28;20036;-87
2022/01/07 00:09:11;;;;;;;25.30;7.15;;;2.70;99.90;;;;;;4997977;28;20053;-86
2022/01/07 00:11:37;;;;;;;10.55;5.65;;;3.70;99.90;;;;;;4999182;28;20115;-87
2022/01/07 00:14:02;;;;;;;16.90;7.00;;;3.90;99.90;;;;;;5015722;28;20107;-87
2022/01/07 00:16:28;;;;;;;15.27;6.18;;;3.00;99.90;;;;;;4998458;28;20036;-87
2022/01/07 00:18:56;;;;;;;21.42;6.18;;;3.10;99.90;;;;;;4999274;28;20083;-87
2022/01/07 00:21:22;;;;;;;15.23;5.97;;;2.70;99.90;;;;;;5012977;28;20037;-87
2022/01/07 00:23:48;;;;;;;11.10;6.43;;;3.40;99.90;;;;;;5014813;28;20053;-87
2022/01/07 00:26:13;;;;;;;12.45;6.22;;;2.90;99.90;;;;;;4998587;28;20048;-87
2022/01/07 00:28:39;;;;;;;11.70;5.97;;;3.30;99.90;;;;;;4995141;28;20071;-87
2022/01/07 00:31:05;;;;;;;13.98;5.57;;;2.80;99.90;;;;;;5013034;28;20040;-87
2022/01/07 00:33:30;;;;;;;17.25;5.55;;;3.90;99.90;;;;;;5012847;28;20033;-87
2022/01/07 00:35:56;;;;;;;14.00;6.18;;;2.80;99.90;;;;;;4998011;28;20071;-87
2022/01/07 00:38:23;;;;;;;9.40;5.45;;;2.80;99.90;;;;;;5030687;28;20044;-88
2022/01/07 00:40:49;;;;;;;17.30;5.53;;;3.60;99.90;;;;;;4998282;28;20502;-87
2022/01/07 00:43:15;;;;;;;16.02;6.05;;;2.80;99.90;;;;;;5047369;28;20037;-87
2022/01/07 00:45:41;;;;;;;11.23;5.22;;;2.70;99.90;;;;;;5012114;28;20053;-88
2022/01/07 00:48:07;;;;;;;23.17;6.07;;;2.70;99.90;;;;;;5015189;28;20791;-87
2022/01/07 00:50:33;;;;;;;10.45;5.38;;;2.70;99.90;;;;;;4995447;28;20675;-87
2022/01/07 00:52:59;;;;;;;11.05;5.55;;;2.70;99.90;;;;;;5008862;28;20088;-87
2022/01/07 00:55:26;;;;;;;14.98;5.28;;;3.00;99.90;;;;;;5000775;28;20086;-87
2022/01/07 00:57:53;;;;;;;12.85;6.20;;;3.60;99.90;;;;;;4999211;28;20090;-87
2022/01/07 01:00:21;;;;;;;12.88;5.20;;;3.10;99.90;;;;;;5003335;28;20033;-87
2022/01/07 01:02:47;;;;;;;13.50;5.30;;;2.50;99.90;;;;;;5029172;28;20053;-87
2022/01/07 01:05:15;;;;;;;14.50;6.00;;;2.70;99.90;;;;;;5012172;28;20040;-87
2022/01/07 01:07:41;;;;;;;14.95;5.40;;;2.50;99.90;;;;;;5030335;28;20037;-87
2022/01/07 01:10:08;;;;;;;14.50;5.65;;;3.10;99.90;;;;;;5007928;28;20052;-88
2022/01/07 01:12:36;;;;;;;15.52;5.30;;;2.40;99.90;;;;;;5014010;28;20498;-88
2022/01/07 01:15:03;;;;;;;12.43;6.00;;;2.40;99.90;;;;;;5010608;28;20498;-87
2022/01/07 01:17:28;;;;;;;14.32;5.75;;;2.40;99.90;;;;;;5030840;28;20037;-88
2022/01/07 01:19:54;;;;;;;16.15;7.22;;;2.30;99.90;;;;;;4995977;28;20041;-87
2022/01/07 01:22:20;;;;;;;16.90;6.40;;;2.30;99.90;;;;;;5001237;28;20172;-88
2022/01/07 01:24:46;;;;;;;15.35;5.85;;;2.70;99.90;;;;;;4991830;28;20494;-88
2022/01/07 01:27:11;;;;;;;13.77;5.80;;;2.20;99.90;;;;;;5011446;28;20045;-88
2022/01/07 01:29:38;;;;;;;12.75;5.75;;;2.10;99.90;;;;;;5000658;28;20049;-89
2022/01/07 01:32:05;;;;;;;17.17;6.65;;;2.50;99.90;;;;;;4982303;28;20053;-89
2022/01/07 01:34:31;;;;;;;21.00;6.53;;;2.00;99.90;;;;;;5027219;28;20072;-90
2022/01/07 01:36:57;;;;;;;18.42;5.80;;;3.20;99.90;;;;;;5029181;28;20037;-89
2022/01/07 01:39:23;;;;;;;14.20;7.03;;;2.10;99.90;;;;;;5002060;28;20037;-89
2022/01/07 01:41:49;;;;;;;15.23;5.95;;;3.00;99.90;;;;;;5015215;28;21221;-89
2022/01/07 01:44:15;;;;;;;16.23;7.10;;;1.80;99.90;;;;;;5010977;28;20049;-89
2022/01/07 01:46:41;;;;;;;16.15;6.35;;;1.80;99.90;;;;;;4992867;28;20086;-88
2022/01/07 01:49:07;;;;;;;19.75;7.28;;;1.80;99.90;;;;;;5024636;28;20049;-89
2022/01/07 01:51:34;;;;;;;23.27;8.35;;;1.70;99.90;;;;;;4993699;28;20041;-88
2022/01/07 01:54:00;;;;;;;17.35;7.28;;;1.70;99.90;;;;;;5017470;28;20149;-89
2022/01/07 01:56:25;;;;;;;15.38;6.65;;;3.00;99.90;;;;;;5011493;28;20025;-89
2022/01/07 01:58:51;;;;;;;21.70;7.07;;;3.00;99.90;;;;;;4987894;28;20517;-89
2022/01/07 02:01:17;;;;;;;16.75;7.85;;;2.80;99.90;;;;;;4997761;28;20038;-89
2022/01/07 02:03:43;;;;;;;14.07;7.10;;;1.70;99.90;;;;;;4986655;28;20034;-89
2022/01/07 02:06:09;;;;;;;15.25;6.50;;;1.60;99.90;;;;;;4993193;28;20045;-89
2022/01/07 02:08:36;;;;;;;18.58;7.90;;;1.60;99.90;;;;;;4997754;28;20042;-89
2022/01/07 02:11:03;;;;;;;23.02;8.23;;;1.60;99.90;;;;;;4998697;28;20104;-89
2022/01/07 02:13:29;;;;;;;15.48;8.13;;;1.60;99.90;;;;;;5009306;28;20067;-89
2022/01/07 02:15:55;;;;;;;15.60;8.02;;;1.60;99.90;;;;;;5019315;28;20072;-89
2022/01/07 02:18:21;;;;;;;20.88;8.50;;;1.60;99.90;;;;;;5007843;28;20117;-89
2022/01/07 02:20:47;;;;;;;19.63;9.45;;;2.30;99.90;;;;;;4998483;28;20093;-90
2022/01/07 02:23:13;;;;;;;19.00;9.02;;;1.60;99.90;;;;;;5036359;28;20073;-91
2022/01/07 02:25:39;;;;;;;17.45;9.00;;;1.60;99.90;;;;;;5014740;28;20056;-89
2022/01/07 02:28:05;;;;;;;19.98;9.27;;;1.60;99.90;;;;;;5017510;28;20477;-89
2022/01/07 02:30:31;;;;;;;19.75;7.97;;;1.60;99.90;;;;;;4999778;28;20108;-90
2022/01/07 02:32:58;;;;;;;20.10;9.40;;;1.60;99.90;;;;;;5000461;28;20132;-89
2022/01/07 02:35:28;;;;;;;18.42;9.27;;;1.60;99.90;;;;;;5017918;28;20126;-89
2022/01/07 02:37:54;;;;;;;22.13;10.13;;;1.50;99.90;;;;;;5028403;28;20606;-89
2022/01/07 02:40:20;;;;;;;23.55;11.90;;;2.70;99.90;;;;;;5017795;28;20069;-89
2022/01/07 02:42:46;;;;;;;21.70;10.07;;;1.50;99.90;;;;;;5000517;28;20050;-89
2022/01/07 02:45:13;;;;;;;17.65;10.48;;;1.50;99.90;;;;;;5016565;28;20044;-90
2022/01/07 02:50:17;;;;;;;29.50;10.73;;;1.60;99.90;;;;;;5046668;28;20049;-89
2022/01/07 02:52:43;;;;;;;20.98;10.88;;;1.50;99.90;;;;;;5000654;28;20049;-88
2022/01/07 02:55:09;;;;;;;24.13;10.40;;;1.50;99.90;;;;;;5017952;28;20478;-89
2022/01/07 02:57:35;;;;;;;27.20;13.13;;;1.50;99.90;;;;;;5000763;28;20039;-89
2022/01/07 03:00:01;;;;;;;21.23;11.90;;;2.50;99.90;;;;;;4979277;28;20033;-89
2022/01/07 03:02:27;;;;;;;36.53;12.65;;;1.50;99.90;;;;;;5001203;28;20076;-89
2022/01/07 03:04:53;;;;;;;25.10;12.48;;;1.50;99.90;;;;;;4980332;28;20481;-89
2022/01/07 03:07:19;;;;;;;23.42;11.77;;;2.70;99.90;;;;;;5000091;28;20037;-90
2022/01/07 03:09:44;;;;;;;20.60;11.35;;;2.60;99.90;;;;;;5016608;28;20132;-89
2022/01/07 03:12:10;;;;;;;23.17;11.80;;;1.50;99.90;;;;;;4999873;28;20561;-89
2022/01/07 03:14:36;;;;;;;20.77;11.95;;;1.50;99.90;;;;;;4982388;28;20073;-89
2022/01/07 03:17:02;;;;;;;22.65;12.88;;;1.40;99.90;;;;;;5018176;28;20045;-89
2022/01/07 03:19:27;;;;;;;24.55;12.75;;;1.40;99.90;;;;;;5018410;28;20037;-89
2022/01/07 03:21:53;;;;;;;20.23;12.15;;;1.40;99.90;;;;;;5016637;28;20097;-88
2022/01/07 03:24:19;;;;;;;24.98;13.13;;;1.40;99.90;;;;;;4999659;28;20499;-88
2022/01/07 03:26:44;;;;;;;27.20;12.68;;;2.70;99.90;;;;;;4999544;28;20073;-89
2022/01/07 03:29:10;;;;;;;28.55;12.85;;;2.80;99.90;;;;;;4984376;28;20041;-88
2022/01/07 03:31:36;;;;;;;25.80;13.55;;;1.90;99.90;;;;;;4998367;28;20041;-88
2022/01/07 03:34:02;;;;;;;17.52;9.73;;;1.40;99.90;;;;;;4999289;28;20086;-89
2022/01/07 03:36:28;;;;;;;18.67;11.88;;;1.40;99.90;;;;;;5013843;28;20063;-89
2022/01/07 03:38:54;;;;;;;21.08;12.32;;;1.40;99.90;;;;;;5008611;28;20036;-89
2022/01/07 03:41:20;;;;;;;26.77;13.32;;;1.40;99.90;;;;;;4999118;28;20041;-88
2022/01/07 03:43:46;;;;;;;20.02;11.40;;;1.40;99.90;;;;;;4998445;28;20048;-89
2022/01/07 03:46:11;;;;;;;19.70;11.73;;;2.80;99.90;;;;;;5034754;28;20045;-89
2022/01/07 03:48:37;;;;;;;29.13;13.07;;;1.40;99.90;;;;;;4983921;28;20508;-89
2022/01/07 03:51:03;;;;;;;24.05;12.80;;;2.10;99.90;;;;;;5015685;28;20055;-89
2022/01/07 03:53:28;;;;;;;22.15;11.43;;;1.40;99.90;;;;;;5014799;28;20059;-89
2022/01/07 03:55:54;;;;;;;32.80;12.60;;;1.50;99.90;;;;;;5014991;28;20033;-89
2022/01/07 03:58:20;;;;;;;21.60;11.82;;;1.50;99.90;;;;;;4981885;28;20489;-89
2022/01/07 04:00:46;;;;;;;25.38;12.57;;;1.90;99.90;;;;;;5015003;28;20029;-89
2022/01/07 04:03:15;;;;;;;25.33;12.13;;;1.50;99.90;;;;;;5012489;28;20033;-89
2022/01/07 04:05:41;;;;;;;22.67;13.10;;;2.60;99.90;;;;;;5013065;28;20041;-88
2022/01/07 04:08:07;;;;;;;26.73;13.45;;;1.50;99.90;;;;;;5000588;28;20075;-88
2022/01/07 04:10:34;;;;;;;24.33;13.32;;;2.10;99.90;;;;;;5014545;28;20491;-89
2022/01/07 04:13:00;;;;;;;24.88;13.73;;;2.40;99.90;;;;;;4998206;28;20040;-90
2022/01/07 04:15:26;;;;;;;24.42;13.50;;;1.60;99.90;;;;;;5015875;28;20556;-88
2022/01/07 04:17:54;;;;;;;22.88;11.05;;;1.60;99.90;;;;;;5019310;28;20120;-89
2022/01/07 04:20:22;;;;;;;22.20;11.80;;;1.60;99.90;;;;;;5015851;28;20037;-88
2022/01/07 04:22:48;;;;;;;19.80;11.98;;;3.00;99.90;;;;;;5018020;28;20041;-88
2022/01/07 04:25:19;;;;;;;19.55;10.75;;;1.70;99.90;;;;;;5014405;28;20422;-88
2022/01/07 04:27:59;;;;;;;20.33;10.50;;;1.70;99.90;;;;;;5014220;28;20042;-89
2022/01/07 04:30:34;;;;;;;25.02;12.40;;;2.10;99.90;;;;;;5012307;28;20037;-89
2022/01/07 04:33:02;;;;;;;20.75;12.50;;;1.80;99.90;;;;;;5023406;28;20040;-87
2022/01/07 04:35:28;;;;;;;22.00;11.68;;;1.80;99.90;;;;;;5010154;28;20116;-90
2022/01/07 04:37:54;;;;;;;19.10;11.48;;;1.80;99.90;;;;;;5023112;28;20045;-88
2022/01/07 04:40:20;;;;;;;23.92;11.65;;;2.60;99.90;;;;;;4998605;28;20045;-87
2022/01/07 04:42:46;;;;;;;19.70;11.57;;;1.80;99.90;;;;;;4992921;28;20050;-87
2022/01/07 04:45:13;;;;;;;18.08;10.30;;;2.40;99.90;;;;;;5004525;28;20049;-88
2022/01/07 04:47:40;;;;;;;17.15;10.82;;;1.80;99.90;;;;;;4999331;28;20495;-88
2022/01/07 04:50:10;;;;;;;22.60;10.55;;;1.80;99.90;;;;;;5022682;28;20041;-88
2022/01/07 04:52:35;;;;;;;20.90;10.60;;;1.80;99.90;;;;;;5007071;28;20096;-88
2022/01/07 04:55:04;;;;;;;19.30;10.30;;;1.80;99.90;;;;;;4992586;28;20473;-88
2022/01/07 04:57:30;;;;;;;17.20;11.43;;;1.80;99.90;;;;;;5006807;28;20041;-88
2022/01/07 04:59:56;;;;;;;18.00;10.77;;;1.80;99.90;;;;;;5010594;28;20040;-88
2022/01/07 05:02:22;;;;;;;18.60;10.27;;;1.80;99.90;;;;;;4997859;28;20049;-89
2022/01/07 05:04:48;;;;;;;18.63;9.48;;;1.80;99.90;;;;;;5031582;28;20038;-88
2022/01/07 05:07:15;;;;;;;20.30;10.43;;;2.50;99.90;;;;;;5025634;28;20049;-88
2022/01/07 05:09:44;;;;;;;18.10;10.48;;;2.70;99.90;;;;;;5030675;28;20052;-88
2022/01/07 05:12:10;;;;;;;20.40;11.13;;;1.80;99.90;;;;;;5023142;28;20049;-88
2022/01/07 05:14:36;;;;;;;20.80;9.93;;;1.90;99.90;;;;;;5032726;28;20041;-88
2022/01/07 05:17:02;;;;;;;18.38;10.88;;;1.90;99.90;;;;;;5024606;28;20022;-89
2022/01/07 05:19:28;;;;;;;18.58;10.60;;;1.90;99.90;;;;;;5039477;28;20029;-88
2022/01/07 05:21:56;;;;;;;17.45;9.65;;;3.00;99.90;;;;;;4983633;28;20038;-87
2022/01/07 05:24:21;;;;;;;14.80;9.30;;;1.90;99.90;;;;;;4974318;28;20062;-88
2022/01/07 05:26:47;;;;;;;15.50;9.63;;;1.90;99.90;;;;;;4987210;28;20053;-88
2022/01/07 05:29:13;;;;;;;20.63;10.50;;;2.60;99.90;;;;;;4982378;28;20045;-87
2022/01/07 05:31:39;;;;;;;17.88;9.73;;;1.90;99.90;;;;;;4966192;28;20113;-88
2022/01/07 05:34:04;;;;;;;15.15;9.15;;;2.80;99.90;;;;;;4986035;28;20435;-88
2022/01/07 05:36:30;;;;;;;18.85;10.15;;;1.90;99.90;;;;;;4995951;28;20121;-88
2022/01/07 05:38:56;;;;;;;18.23;10.50;;;1.90;99.90;;;;;;4969581;28;20037;-88
2022/01/07 05:41:22;;;;;;;17.05;10.15;;;1.80;99.90;;;;;;4971889;28;20088;-88
2022/01/07 05:43:48;;;;;;;13.85;8.88;;;1.90;99.90;;;;;;4988450;28;20522;-90
2022/01/07 05:46:15;;;;;;;16.92;9.77;;;2.40;99.90;;;;;;4966495;28;20042;-87
2022/01/07 05:48:46;;;;;;;14.65;9.77;;;1.80;99.90;;;;;;4996577;28;20096;-88
2022/01/07 05:51:12;;;;;;;14.65;9.30;;;1.90;99.90;;;;;;4987632;28;20042;-87
2022/01/07 05:53:38;;;;;;;14.23;9.90;;;3.00;99.90;;;;;;4984209;28;20053;-87
2022/01/07 05:56:05;;;;;;;16.38;9.65;;;1.90;99.90;;;;;;5001051;28;20038;-89
2022/01/07 05:58:31;;;;;;;13.10;7.28;;;2.90;99.90;;;;;;4977402;28;20030;-89
2022/01/07 06:00:57;;;;;;;20.15;9.30;;;1.90;99.90;;;;;;4974671;28;20034;-88
2022/01/07 06:03:23;;;;;;;13.75;9.20;;;2.70;99.90;;;;;;4977101;28;20123;-88
2022/01/07 06:05:49;;;;;;;15.55;9.05;;;1.90;99.90;;;;;;4977323;28;20479;-88
2022/01/07 06:08:14;;;;;;;15.45;9.48;;;1.90;99.90;;;;;;4994902;28;20041;-88
2022/01/07 06:10:40;;;;;;;14.45;10.32;;;1.90;99.90;;;;;;5010576;28;20034;-88
2022/01/07 06:13:06;;;;;;;14.90;9.45;;;1.90;99.90;;;;;;4978192;28;20046;-88
2022/01/07 06:15:31;;;;;;;14.70;8.98;;;2.60;99.90;;;;;;4978339;28;20113;-88
2022/01/07 06:17:59;;;;;;;17.08;9.60;;;1.90;99.90;;;;;;4954931;28;20096;-87
2022/01/07 06:20:26;;;;;;;13.38;9.60;;;1.90;99.90;;;;;;4976543;28;20596;-88
2022/01/07 06:22:51;;;;;;;12.80;9.38;;;2.00;99.90;;;;;;4977629;28;20479;-87
2022/01/07 06:25:17;;;;;;;12.25;8.10;;;2.00;99.90;;;;;;4975854;28;20054;-88
2022/01/07 06:27:43;;;;;;;15.05;9.25;;;2.90;99.90;;;;;;4993685;28;20403;-87
2022/01/07 06:30:10;;;;;;;15.48;9.25;;;2.70;99.90;;;;;;5008523;28;20045;-88
2022/01/07 06:32:35;;;;;;;14.93;8.55;;;2.00;99.90;;;;;;4993656;28;20153;-88
2022/01/07 06:35:02;;;;;;;15.55;9.40;;;3.30;99.90;;;;;;4973981;28;20622;-88
2022/01/07 06:37:28;;;;;;;15.02;8.27;;;3.00;99.90;;;;;;5006121;28;20037;-88
2022/01/07 06:39:55;;;;;;;13.55;8.27;;;2.00;99.90;;;;;;4961882;28;20034;-87
2022/01/07 06:42:21;;;;;;;15.25;9.05;;;2.00;99.90;;;;;;5007312;28;20041;-88
2022/01/07 06:44:47;;;;;;;13.98;9.15;;;2.10;99.90;;;;;;4989249;28;20105;-88
2022/01/07 06:47:13;;;;;;;14.98;8.43;;;2.10;99.90;;;;;;4979531;28;20043;-88
2022/01/07 06:49:39;;;;;;;18.73;9.13;;;2.10;99.90;;;;;;5003454;28;20037;-88
2022/01/07 06:52:05;;;;;;;13.32;9.15;;;3.40;99.90;;;;;;4973697;28;20051;-89
2022/01/07 06:54:31;;;;;;;17.38;8.68;;;2.10;99.90;;;;;;4993453;28;20040;-89
2022/01/07 06:56:58;;;;;;;12.32;8.50;;;2.10;99.90;;;;;;4974316;28;20033;-89
2022/01/07 06:59:24;;;;;;;13.75;8.60;;;2.90;99.90;;;;;;5009703;28;20061;-87
2022/01/07 07:01:49;;;;;;;14.70;8.68;;;2.10;99.90;;;;;;4989942;28;20050;-89
2022/01/07 07:04:16;;;;;;;16.67;9.23;;;2.10;99.90;;;;;;4953696;28;20113;-89
2022/01/07 07:06:42;;;;;;;13.50;8.20;;;2.70;99.90;;;;;;4999840;28;20220;-89
2022/01/07 07:09:08;;;;;;;13.63;9.20;;;2.20;99.90;;;;;;5005624;28;20120;-89
2022/01/07 07:11:35;;;;;;;12.43;8.50;;;2.10;99.90;;;;;;5002925;28;20506;-89
2022/01/07 07:14:00;;;;;;;12.02;8.18;;;2.90;99.90;;;;;;5004144;28;20052;-89
2022/01/07 07:16:26;;;;;;;14.45;9.38;;;3.50;99.90;;;;;;4975861;28;20038;-89
2022/01/07 07:18:52;;;;;;;14.38;9.98;;;2.20;99.90;;;;;;4992843;28;20038;-89
2022/01/07 07:21:18;;;;;;;13.75;9.43;;;2.20;99.90;;;;;;4960515;28;20048;-89
2022/01/07 07:23:44;;;;;;;20.80;10.10;;;2.20;99.90;;;;;;5015658;28;20107;-89
2022/01/07 07:26:09;;;;;;;16.20;10.10;;;3.40;99.90;;;;;;5016260;28;20526;-89
2022/01/07 07:28:36;;;;;;;15.40;9.73;;;2.20;99.90;;;;;;5016047;28;20065;-89
2022/01/07 07:31:05;;;;;;;16.48;10.30;;;3.50;99.90;;;;;;4997449;28;20075;-89
2022/01/07 07:33:55;;;;;;;15.57;10.18;;;2.20;99.90;;;;;;4999702;28;20091;-89
2022/01/07 07:36:27;;;;;;;14.93;10.07;;;2.20;99.90;;;;;;5016030;28;20375;-89
2022/01/07 07:38:54;;;;;;;14.48;10.98;;;2.20;99.90;;;;;;5028149;28;20051;-89
2022/01/07 07:41:20;;;;;;;17.80;10.98;;;2.20;99.90;;;;;;5029852;28;20489;-90
2022/01/07 07:43:47;;;;;;;15.65;10.50;;;2.20;99.90;;;;;;5010200;28;20045;-89
2022/01/07 07:46:14;;;;;;;15.27;10.32;;;3.20;99.90;;;;;;5015352;28;20037;-89
2022/01/07 07:48:40;;;;;;;19.58;11.82;;;2.30;99.90;;;;;;4999445;28;20083;-89
2022/01/07 07:51:06;;;;;;;19.65;12.98;;;3.00;99.90;;;;;;5014199;28;20045;-89
2022/01/07 07:53:32;;;;;;;17.92;12.23;;;3.50;99.90;;;;;;5014638;28;20048;-89
2022/01/07 07:55:57;;;;;;;16.13;11.45;;;2.30;99.90;;;;;;5029479;28;20040;-88
2022/01/07 07:58:24;;;;;;;25.23;11.80;;;3.30;99.90;;;;;;4997481;28;20036;-89
2022/01/07 08:00:51;;;;;;;22.83;13.02;;;3.20;99.90;;;;;;4995872;28;20041;-89
2022/01/07 08:03:17;;;;;;;15.85;12.27;;;2.30;99.90;;;;;;5032018;28;20041;-89
2022/01/07 08:05:43;;;;;;;24.42;13.55;;;3.10;99.90;;;;;;5028954;28;20079;-88
2022/01/07 08:08:09;;;;;;;19.25;12.65;;;2.60;99.90;;;;;;4992178;28;20487;-89
2022/01/07 08:10:47;;;;;;;25.63;13.10;;;2.40;99.90;;;;;;4969420;28;20131;-88
2022/01/07 08:15:58;;;;;;;20.98;12.98;;;2.40;99.90;;;;;;5028230;28;20483;-89
2022/01/07 08:18:36;;;;;;;28.63;13.77;;;3.20;99.90;;;;;;5004771;28;20048;-88
2022/01/07 08:21:09;;;;;;;25.77;14.32;;;2.50;99.90;;;;;;5014741;28;20038;-88
2022/01/07 08:23:39;;;;;;;30.58;15.25;;;2.80;99.90;;;;;;5035340;28;20071;-87
2022/01/07 08:26:08;;;;;;;21.70;12.93;;;2.60;99.90;;;;;;5017877;28;20103;-88
2022/01/07 08:28:40;;;;;;;25.48;14.48;;;2.60;99.90;;;;;;5036377;28;20045;-88
2022/01/07 08:36:22;;;;;;;27.80;15.20;;;3.80;99.90;;;;;;5030156;28;20144;-89
2022/01/07 08:38:49;;;;;;;28.27;16.25;;;3.00;99.90;;;;;;5012685;28;20486;-90
2022/01/07 08:41:18;;;;;;;28.63;16.40;;;3.00;99.90;;;;;;5013407;28;20111;-86
2022/01/07 08:43:43;;;;;;;30.38;15.15;;;3.30;99.90;;;;;;5002966;28;20033;-85
2022/01/07 08:46:10;;;;;;;27.85;16.35;;;2.70;99.90;;;;;;5014362;28;20052;-84
2022/01/07 08:48:39;;;;;;;28.98;17.15;;;3.20;99.90;;;;;;5009764;28;20064;-84
2022/01/07 08:51:07;;;;;;;22.58;14.18;;;2.80;99.90;;;;;;5013095;28;20047;-83
2022/01/07 08:53:33;;;;;;;30.65;17.38;;;2.80;99.90;;;;;;4993986;28;20552;-87
2022/01/07 08:55:59;;;;;;;27.05;16.23;;;2.90;99.90;;;;;;4999128;28;20061;-87
2022/01/07 08:58:25;;;;;;;32.67;16.52;;;3.00;99.90;;;;;;5016559;28;20044;-89
2022/01/07 09:00:51;;;;;;;33.35;16.17;;;3.00;99.90;;;;;;5031818;28;20033;-87
2022/01/07 09:03:17;;;;;;;31.45;16.90;;;3.40;99.90;;;;;;5031481;28;20059;-86
2022/01/07 09:05:43;;;;;;;30.75;17.30;;;3.10;99.90;;;;;;4998278;28;20124;-90
2022/01/07 09:08:12;;;;;;;29.20;15.88;;;3.20;99.90;;;;;;5031277;28;20037;-91
2022/01/07 09:10:42;;;;;;;25.52;16.65;;;3.20;99.90;;;;;;4998407;28;20082;-86
2022/01/07 09:13:08;;;;;;;30.65;16.98;;;4.00;99.90;;;;;;5011185;28;20176;-87
2022/01/07 09:15:35;;;;;;;30.08;16.15;;;3.30;99.90;;;;;;4995428;28;20111;-86
2022/01/07 09:18:09;;;;;;;30.08;16.67;;;3.30;99.90;;;;;;5000235;28;20042;-86
2022/01/07 09:20:39;;;;;;;27.63;16.80;;;3.40;99.90;;;;;;5005394;28;20037;-86
2022/01/07 09:23:06;;;;;;;28.65;15.45;;;3.40;99.90;;;;;;4997016;28;20049;-86
2022/01/07 09:25:32;;;;;;;31.70;16.63;;;3.50;99.90;;;;;;4996027;28;20049;-89
2022/01/07 09:27:58;;;;;;;24.58;16.65;;;3.50;99.90;;;;;;4992139;28;20124;-87
2022/01/07 09:30:24;;;;;;;37.58;18.30;;;3.60;99.90;;;;;;5009372;28;20140;-88
2022/01/07 09:32:50;;;;;;;31.83;17.60;;;3.70;99.90;;;;;;5006242;28;20505;-87
2022/01/07 09:35:16;;;;;;;33.83;17.33;;;4.00;99.90;;;;;;5015794;28;20053;-87
2022/01/07 09:37:43;;;;;;;35.85;16.85;;;4.20;99.90;;;;;;4990156;28;20056;-88
2022/01/07 09:40:10;;;;;;;34.85;17.63;;;3.80;99.90;;;;;;5025050;28;20487;-88
2022/01/07 09:42:37;;;;;;;34.17;16.98;;;3.90;99.90;;;;;;4996990;28;20718;-87
2022/01/07 09:45:03;;;;;;;29.05;18.13;;;3.90;99.90;;;;;;4991153;28;20045;-88
2022/01/07 09:47:29;;;;;;;31.42;17.05;;;4.00;99.90;;;;;;5030253;28;20041;-88
2022/01/07 09:49:54;;;;;;;35.28;16.58;;;4.00;99.90;;;;;;4997043;28;20043;-90
2022/01/07 09:52:20;;;;;;;26.10;16.42;;;4.00;99.90;;;;;;4995156;28;20744;-88
2022/01/07 09:54:47;;;;;;;30.88;16.63;;;4.10;99.90;;;;;;5030396;28;20085;-89
2022/01/07 09:57:14;;;;;;;27.05;17.25;;;4.20;99.90;;;;;;5014926;28;20114;-89
2022/01/07 09:59:40;;;;;;;27.58;16.00;;;4.10;99.90;;;;;;5014437;28;20041;-88
2022/01/07 10:02:09;;;;;;;31.05;16.98;;;4.20;99.90;;;;;;4980400;28;20044;-89
2022/01/07 10:04:40;;;;;;;27.92;16.40;;;4.20;99.90;;;;;;4997069;28;20385;-87
2022/01/07 10:07:12;;;;;;;21.95;13.55;;;4.20;99.90;;;;;;5007763;28;20574;-88
2022/01/07 10:09:39;;;;;;;30.85;16.20;;;4.20;99.90;;;;;;5011110;28;20037;-83
2022/01/07 10:12:06;;;;;;;31.58;17.17;;;4.20;99.90;;;;;;5008332;28;20041;-90
2022/01/07 10:14:33;;;;;;;27.77;16.80;;;4.20;99.90;;;;;;5013929;28;20040;-88
2022/01/07 10:17:00;;;;;;;28.98;17.10;;;5.40;99.90;;;;;;4987002;28;20036;-89
2022/01/07 10:19:43;;;;;;;27.45;16.85;;;4.20;99.90;;;;;;5013333;28;20090;-91
2022/01/07 10:22:14;;;;;;;25.33;16.40;;;4.20;99.90;;;;;;5001010;28;20040;-91
2022/01/07 10:25:00;;;;;;;29.05;17.08;;;4.10;99.90;;;;;;4996189;28;20053;-91
2022/01/07 10:27:34;;;;;;;34.33;17.23;;;4.10;99.90;;;;;;5017028;28;20047;-91
2022/01/07 10:29:59;;;;;;;31.83;16.88;;;4.10;99.90;;;;;;4999558;28;20033;-90
2022/01/07 10:32:26;;;;;;;28.48;16.52;;;4.10;99.90;;;;;;4984274;28;20126;-91
2022/01/07 10:35:04;;;;;;;28.23;15.93;;;4.10;99.90;;;;;;5004022;28;20088;-89
2022/01/07 10:37:30;;;;;;;27.90;16.95;;;4.10;99.90;;;;;;5002546;28;20119;-90
2022/01/07 10:39:56;;;;;;;31.08;16.98;;;5.10;99.90;;;;;;5002867;28;20104;-88
2022/01/07 10:42:26;;;;;;;24.20;15.38;;;4.10;99.90;;;;;;5005512;28;20041;-90
2022/01/07 10:45:01;;;;;;;26.10;13.65;;;4.10;99.90;;;;;;5022823;28;20087;-86
2022/01/07 10:47:28;;;;;;;17.55;10.90;;;4.10;99.90;;;;;;5034964;28;20045;-87
2022/01/07 10:50:21;;;;;;;15.07;9.10;;;4.00;99.90;;;;;;5003763;28;20068;-87
2022/01/07 10:52:47;;;;;;;;;;;3.90;99.90;;;;;;5023002;28;20537;-87
2022/01/07 10:55:16;;;;;;;10.10;6.13;;;3.90;99.90;;;;;;5029181;28;19967;-84
2022/01/07 10:57:45;;;;;;;9.77;4.60;;;3.80;99.90;;;;;;5013012;28;20479;-86
2022/01/07 11:00:13;;;;;;;5.70;3.70;;;3.80;99.90;;;;;;5007902;28;20036;-85
2022/01/07 11:02:42;;;;;;;5.72;3.63;;;3.70;99.90;;;;;;4999525;28;20040;-86
2022/01/07 11:05:09;;;;;;;8.25;3.90;;;3.70;99.90;;;;;;4984292;28;20772;-86
2022/01/07 11:07:35;;;;;;;5.97;3.83;;;3.70;99.90;;;;;;5009937;28;20039;-86
2022/01/07 11:10:07;;;;;;;7.63;4.25;;;3.70;99.90;;;;;;4996126;28;20052;-86
2022/01/07 11:12:33;;;;;;;7.20;4.57;;;3.70;99.90;;;;;;4995707;28;20046;-86
2022/01/07 11:15:00;;;;;;;8.55;4.32;;;3.70;99.90;;;;;;4996092;28;20360;-86
2022/01/07 11:17:26;;;;;;;8.07;4.68;;;3.60;99.90;;;;;;4997009;28;20037;-85
2022/01/07 11:19:59;;;;;;;7.35;4.40;;;3.70;99.90;;;;;;4970008;28;20056;-86
2022/01/07 11:22:25;;;;;;;5.97;4.20;;;3.70;99.90;;;;;;4992816;28;20082;-85
2022/01/07 11:24:59;;;;;;;9.52;4.90;;;3.70;99.90;;;;;;5014090;28;20085;-86
2022/01/07 11:27:26;;;;;;;7.80;4.70;;;3.70;99.90;;;;;;4997324;28;20128;-87
2022/01/07 11:30:07;;;;;;;8.50;5.18;;;3.90;99.90;;;;;;4984072;28;20045;-88
2022/01/07 11:32:41;;;;;;;8.90;6.32;;;3.70;99.90;;;;;;5015244;28;20120;-88
2022/01/07 11:35:20;;;;;;;14.40;7.13;;;3.70;99.90;;;;;;4999235;28;20052;-87
2022/01/07 11:37:55;;;;;;;12.27;7.65;;;3.70;99.90;;;;;;4991447;28;20033;-86
2022/01/07 11:40:33;;;;;;;18.27;9.45;;;3.80;99.90;;;;;;4999265;28;20112;-87
2022/01/07 11:43:24;;;;;;;18.98;10.63;;;3.80;99.90;;;;;;4994892;28;20423;-86
2022/01/07 11:45:50;;;;;;;23.35;12.38;;;3.90;99.90;;;;;;4996880;28;20588;-86
2022/01/07 11:48:22;;;;;;;21.15;13.18;;;4.00;99.90;;;;;;5011680;28;20099;-86
2022/01/07 11:51:09;;;;;;;27.30;14.10;;;4.10;99.90;;;;;;4966560;28;20040;-88
2022/01/07 11:53:41;;;;;;;24.40;14.65;;;4.10;99.90;;;;;;4996987;28;20444;-87
2022/01/07 11:56:15;;;;;;;21.03;12.30;;;5.20;99.90;;;;;;4997002;28;20061;-87
2022/01/07 11:58:55;;;;;;;27.85;14.63;;;4.30;99.90;;;;;;4998397;28;20516;-87
2022/01/07 12:01:27;;;;;;;34.50;14.52;;;4.40;99.90;;;;;;4997213;28;20032;-87
2022/01/07 12:03:54;;;;;;;26.40;15.27;;;4.40;99.90;;;;;;5015144;28;20042;-86
2022/01/07 12:06:26;;;;;;;18.60;11.07;;;5.50;99.90;;;;;;5001104;28;20049;-87
2022/01/07 12:09:09;;;;;;;17.98;10.43;;;5.60;99.90;;;;;;5031173;28;20089;-88
2022/01/07 12:11:39;;;;;;;13.65;4.50;;;4.40;99.90;;;;;;4998495;28;20099;-88
2022/01/07 12:14:14;;;;;;;8.77;3.65;;;4.30;99.90;;;;;;4986880;28;20120;-88
2022/01/07 12:16:44;;;;;;;4.88;3.20;;;4.30;99.90;;;;;;4997881;28;20041;-88
2022/01/07 12:19:20;;;;;;;7.65;3.03;;;4.20;99.90;;;;;;4998634;28;20030;-88
2022/01/07 12:21:48;;;;;;;7.90;1.90;;;4.10;99.90;;;;;;4995301;28;20043;-88
2022/01/07 12:24:29;;;;;;;5.15;2.00;;;4.00;99.90;;;;;;4995661;28;20413;-89
2022/01/07 12:27:23;;;;;;;6.55;1.80;;;3.90;99.90;;;;;;4997804;28;20124;-88
2022/01/07 12:29:51;;;;;;;6.13;1.60;;;3.80;99.90;;;;;;5013029;28;20161;-87
2022/01/07 12:32:18;;;;;;;6.68;2.42;;;3.70;99.90;;;;;;4996641;28;20472;-87
2022/01/07 12:34:47;;;;;;;5.70;1.77;;;3.60;99.90;;;;;;4996504;28;20087;-87
2022/01/07 12:37:19;;;;;;;9.38;2.00;;;3.60;99.90;;;;;;5001674;28;20033;-88
2022/01/07 12:39:48;;;;;;;6.30;1.13;;;4.00;99.90;;;;;;5033455;28;20037;-87
2022/01/07 12:42:14;;;;;;;7.03;1.50;;;3.50;99.90;;;;;;5012401;28;20176;-85
2022/01/07 12:44:54;;;;;;;4.18;1.40;;;3.50;99.90;;;;;;4982136;28;20045;-86
2022/01/07 12:47:22;;;;;;;3.22;1.38;;;3.50;99.90;;;;;;4992803;28;20635;-88
2022/01/07 12:49:50;;;;;;;6.20;2.08;;;4.00;99.90;;;;;;4974753;28;20048;-87
2022/01/07 12:52:26;;;;;;;3.35;1.13;;;3.90;99.90;;;;;;5011727;28;20450;-86
2022/01/07 12:55:03;;;;;;;7.40;1.52;;;3.30;99.90;;;;;;5013102;28;20064;-86
2022/01/07 12:57:40;;;;;;;5.45;1.40;;;3.20;99.90;;;;;;5026061;28;20506;-89